Time;durP1;ratioP1;P1;durP2;ratioP2;P2;SDS_P1;SDS_P2;PMS_P1;PMS_P2;Temp;Humidity;BMP_temperature;BMP_pressure;BME280_temperature;BME280_humidity;BME280_pressure;Samples;Min_cycle;Max_cycle;Signal;HPM_P1;HPM_P2
2022/07/11 00:02:16;;;;;;;1.42;0.70;;;15.70;96.40;;;;;;5077513;28;20033;-78
2022/07/11 00:04:42;;;;;;;2.92;0.73;;;15.60;96.50;;;;;;5067016;28;20099;-80
2022/07/11 00:07:08;;;;;;;1.92;0.68;;;15.60;96.70;;;;;;5034909;28;20037;-80
2022/07/11 00:09:34;;;;;;;1.98;0.70;;;15.50;96.70;;;;;;5077765;28;20063;-81
2022/07/11 00:12:01;;;;;;;2.17;1.02;;;15.50;96.70;;;;;;5074475;28;20065;-79
2022/07/11 00:14:27;;;;;;;2.10;0.68;;;15.50;96.80;;;;;;5076878;28;20028;-78
2022/07/11 00:16:53;;;;;;;1.45;0.75;;;15.50;96.90;;;;;;5050740;28;20028;-80
2022/07/11 00:19:22;;;;;;;4.25;1.20;;;15.50;97.00;;;;;;5070626;28;20020;-77
2022/07/11 00:21:49;;;;;;;2.85;0.70;;;15.50;97.00;;;;;;5072811;28;20032;-78
2022/07/11 00:24:14;;;;;;;1.15;0.50;;;15.50;97.00;;;;;;5080776;28;20043;-78
2022/07/11 00:26:40;;;;;;;1.98;0.55;;;15.50;97.20;;;;;;5075491;28;20016;-78
2022/07/11 00:29:06;;;;;;;1.30;0.45;;;15.40;96.90;;;;;;5047517;28;20029;-79
2022/07/11 00:31:32;;;;;;;1.92;0.70;;;15.40;97.00;;;;;;5072878;28;20571;-79
2022/07/11 00:33:58;;;;;;;3.78;0.73;;;15.40;97.20;;;;;;5059258;28;20032;-79
2022/07/11 00:36:23;;;;;;;3.03;1.52;;;15.30;97.30;;;;;;5074719;28;20035;-79
2022/07/11 00:38:49;;;;;;;3.55;0.77;;;15.30;97.50;;;;;;5072753;28;20513;-77
2022/07/11 00:41:15;;;;;;;3.92;0.80;;;15.30;97.50;;;;;;5073163;28;20039;-78
2022/07/11 00:43:41;;;;;;;1.33;0.60;;;15.20;97.60;;;;;;5082957;28;20051;-81
2022/07/11 00:46:08;;;;;;;2.72;1.13;;;15.20;97.70;;;;;;5093566;28;20091;-81
2022/07/11 00:48:37;;;;;;;2.35;0.65;;;15.10;97.80;;;;;;5073035;28;20521;-79
2022/07/11 00:51:04;;;;;;;0.95;0.43;;;15.10;97.90;;;;;;5059054;28;20232;-79
2022/07/11 00:53:30;;;;;;;2.65;0.90;;;15.10;98.00;;;;;;5074272;28;20029;-82
2022/07/11 00:55:56;;;;;;;4.07;0.70;;;15.00;98.20;;;;;;5069924;28;20047;-80
2022/07/11 00:58:22;;;;;;;2.92;0.60;;;14.90;98.30;;;;;;5060781;28;20040;-79
2022/07/11 01:00:48;;;;;;;2.20;0.80;;;14.90;98.40;;;;;;5064334;28;20059;-78
2022/07/11 01:03:14;;;;;;;1.50;0.60;;;14.90;98.50;;;;;;5075713;28;20086;-80
2022/07/11 01:05:40;;;;;;;1.50;0.60;;;14.80;98.50;;;;;;5080611;28;20032;-79
2022/07/11 01:08:06;;;;;;;2.03;0.70;;;14.80;98.50;;;;;;5081280;28;20032;-79
2022/07/11 01:10:32;;;;;;;1.15;0.70;;;14.80;98.50;;;;;;5077878;28;20036;-79
2022/07/11 01:12:58;;;;;;;2.38;0.90;;;14.80;98.70;;;;;;5068008;28;20463;-82
2022/07/11 01:15:24;;;;;;;3.22;0.93;;;14.80;98.80;;;;;;5056555;28;20102;-82
2022/07/11 01:17:52;;;;;;;1.90;0.70;;;14.70;98.80;;;;;;5069187;28;20050;-78
2022/07/11 01:20:18;;;;;;;3.47;0.80;;;14.70;98.90;;;;;;5079584;28;20405;-84
2022/07/11 01:22:49;;;;;;;1.40;0.90;;;14.70;98.90;;;;;;5058617;28;20033;-79
2022/07/11 01:25:29;;;;;;;1.27;0.75;;;14.60;99.00;;;;;;5060999;28;20033;-78
2022/07/11 01:28:06;;;;;;;2.95;0.60;;;14.60;99.10;;;;;;5056071;28;20020;-78
2022/07/11 01:30:32;;;;;;;1.85;1.02;;;14.50;99.20;;;;;;5056153;28;20115;-80
2022/07/11 01:32:58;;;;;;;1.92;0.95;;;14.50;99.20;;;;;;5052062;28;20033;-77
2022/07/11 01:35:25;;;;;;;1.48;0.60;;;14.50;99.30;;;;;;5053352;28;20102;-79
2022/07/11 01:37:50;;;;;;;4.53;0.80;;;14.50;99.30;;;;;;5070166;28;20432;-78
2022/07/11 01:40:16;;;;;;;1.45;0.70;;;14.50;99.30;;;;;;5071344;28;20054;-79
2022/07/11 01:42:42;;;;;;;2.78;0.73;;;14.50;99.40;;;;;;5051583;28;20039;-80
2022/07/11 01:45:09;;;;;;;2.45;0.57;;;14.50;99.40;;;;;;5063956;28;20032;-82
2022/07/11 01:47:36;;;;;;;2.50;1.02;;;14.40;99.50;;;;;;5057819;28;20091;-78
2022/07/11 01:50:03;;;;;;;4.10;1.05;;;14.40;99.40;;;;;;5060440;28;20673;-83
2022/07/11 01:52:29;;;;;;;3.13;0.70;;;14.40;99.40;;;;;;5039748;28;20120;-81
2022/07/11 01:54:54;;;;;;;1.38;0.55;;;14.40;99.50;;;;;;5074367;28;20107;-80
2022/07/11 01:57:20;;;;;;;3.85;0.98;;;14.40;99.50;;;;;;5074090;28;20040;-78
2022/07/11 01:59:46;;;;;;;2.63;1.13;;;14.30;99.50;;;;;;5056093;28;20032;-78
2022/07/11 02:02:12;;;;;;;1.92;0.90;;;14.30;99.60;;;;;;5068968;28;20532;-80
2022/07/11 02:04:37;;;;;;;2.75;1.00;;;14.30;99.60;;;;;;5078026;28;20044;-79
2022/07/11 02:07:03;;;;;;;2.75;0.95;;;14.20;99.70;;;;;;5075834;28;20367;-79
2022/07/11 02:09:29;;;;;;;1.30;0.50;;;14.20;99.80;;;;;;5063239;28;20452;-76
2022/07/11 02:11:54;;;;;;;1.60;0.80;;;14.20;99.80;;;;;;5069626;28;20037;-81
2022/07/11 02:14:19;;;;;;;5.20;0.98;;;14.10;99.80;;;;;;5068350;28;20075;-79
2022/07/11 02:16:45;;;;;;;3.30;0.77;;;14.10;99.90;;;;;;5073382;28;20037;-81
2022/07/11 02:19:10;;;;;;;2.92;0.75;;;14.10;99.90;;;;;;5049647;28;20037;-77
2022/07/11 02:21:36;;;;;;;2.03;0.80;;;14.00;99.90;;;;;;5062707;28;20032;-78
2022/07/11 02:24:02;;;;;;;1.88;0.80;;;14.00;99.90;;;;;;5063832;28;20040;-77
2022/07/11 02:26:28;;;;;;;5.03;1.02;;;14.00;99.90;;;;;;5043506;28;20042;-78
2022/07/11 02:28:53;;;;;;;1.45;0.85;;;14.00;99.90;;;;;;5080743;28;20032;-78
2022/07/11 02:31:19;;;;;;;3.22;0.90;;;14.00;99.90;;;;;;5078273;28;20033;-77
2022/07/11 02:33:45;;;;;;;3.00;0.70;;;14.00;99.90;;;;;;5070262;28;20028;-82
2022/07/11 02:36:11;;;;;;;1.45;1.00;;;13.90;99.90;;;;;;5074300;28;20039;-79
2022/07/11 02:38:37;;;;;;;0.77;0.70;;;13.90;99.90;;;;;;5054345;28;20036;-79
2022/07/11 02:41:02;;;;;;;2.80;1.10;;;13.90;99.90;;;;;;5083331;28;20038;-78
2022/07/11 02:43:28;;;;;;;2.95;1.70;;;13.90;99.90;;;;;;5071726;28;20045;-80
2022/07/11 02:45:54;;;;;;;4.53;1.20;;;13.80;99.90;;;;;;5074515;28;20067;-78
2022/07/11 02:48:20;;;;;;;4.00;1.48;;;13.80;99.90;;;;;;5073695;28;20135;-80
2022/07/11 02:50:47;;;;;;;2.58;1.17;;;13.80;99.90;;;;;;5076184;28;20521;-78
2022/07/11 02:53:12;;;;;;;5.10;1.27;;;13.70;99.90;;;;;;5090582;28;20478;-79
2022/07/11 02:55:38;;;;;;;3.45;1.13;;;13.80;99.90;;;;;;5054900;28;20035;-78
2022/07/11 02:58:03;;;;;;;4.50;1.58;;;13.80;99.90;;;;;;5075121;28;20032;-79
2022/07/11 03:00:29;;;;;;;3.33;0.95;;;13.70;99.90;;;;;;5058430;28;20052;-82
2022/07/11 03:02:55;;;;;;;3.80;1.00;;;13.70;99.90;;;;;;5078429;28;20031;-77
2022/07/11 03:05:20;;;;;;;2.05;1.08;;;13.70;99.90;;;;;;5064652;28;20490;-84
2022/07/11 03:07:46;;;;;;;1.55;1.00;;;13.70;99.90;;;;;;5071770;28;20059;-78
2022/07/11 03:10:12;;;;;;;3.63;1.60;;;13.70;99.90;;;;;;5049975;28;20485;-82
2022/07/11 03:12:38;;;;;;;3.50;1.27;;;13.70;99.90;;;;;;5059818;28;20031;-78
2022/07/11 03:15:04;;;;;;;4.43;1.45;;;13.70;99.90;;;;;;5069373;28;20061;-80
2022/07/11 03:17:30;;;;;;;4.10;1.30;;;13.70;99.90;;;;;;5053574;28;20115;-77
2022/07/11 03:19:55;;;;;;;6.40;1.60;;;13.70;99.90;;;;;;5054136;28;20123;-82
2022/07/11 03:22:22;;;;;;;1.88;1.00;;;13.60;99.90;;;;;;5059046;28;20025;-79
2022/07/11 03:24:50;;;;;;;1.92;1.02;;;13.60;99.90;;;;;;5076329;28;20050;-80
2022/07/11 03:27:16;;;;;;;1.92;1.10;;;13.60;99.90;;;;;;5067144;28;20025;-78
2022/07/11 03:29:41;;;;;;;3.53;1.02;;;13.50;99.90;;;;;;5086591;28;20642;-81
2022/07/11 03:32:07;;;;;;;4.45;1.13;;;13.50;99.90;;;;;;5041183;28;20032;-81
2022/07/11 03:34:32;;;;;;;2.40;1.20;;;13.40;99.90;;;;;;5090039;28;20036;-82
2022/07/11 03:36:58;;;;;;;2.70;1.15;;;13.40;99.90;;;;;;5064992;28;20052;-79
2022/07/11 03:39:23;;;;;;;4.97;1.25;;;13.40;99.90;;;;;;5075240;28;20046;-80
2022/07/11 03:41:49;;;;;;;2.90;1.08;;;13.50;99.90;;;;;;5053541;28;20032;-79
2022/07/11 03:44:14;;;;;;;4.53;1.25;;;13.50;99.90;;;;;;5071516;28;20119;-82
2022/07/11 03:46:40;;;;;;;3.78;1.13;;;13.50;99.90;;;;;;5054522;28;20526;-80
2022/07/11 03:49:05;;;;;;;3.45;1.20;;;13.50;99.90;;;;;;5063403;28;20036;-79
2022/07/11 03:51:31;;;;;;;3.45;1.30;;;13.60;99.90;;;;;;5057704;28;20027;-80
2022/07/11 03:53:56;;;;;;;2.28;1.33;;;13.60;99.90;;;;;;5066409;28;20059;-79
2022/07/11 03:56:22;;;;;;;2.85;1.27;;;13.50;99.90;;;;;;5047439;28;20025;-80
2022/07/11 03:58:49;;;;;;;1.92;1.23;;;13.50;99.90;;;;;;5071373;28;20078;-82
2022/07/11 04:01:15;;;;;;;1.35;1.08;;;13.50;99.90;;;;;;5070564;28;20021;-80
2022/07/11 04:03:42;;;;;;;4.25;0.90;;;13.50;99.90;;;;;;5048903;28;20044;-80
2022/07/11 04:06:08;;;;;;;4.88;1.20;;;13.60;99.90;;;;;;5060858;28;20025;-79
2022/07/11 04:08:33;;;;;;;1.50;0.90;;;13.60;99.90;;;;;;5063432;28;20047;-78
2022/07/11 04:10:59;;;;;;;2.95;1.00;;;13.60;99.90;;;;;;5068655;28;20020;-81
2022/07/11 04:13:25;;;;;;;1.52;0.93;;;13.70;99.90;;;;;;5068925;28;20067;-81
2022/07/11 04:15:50;;;;;;;3.13;1.58;;;13.70;99.90;;;;;;5080065;28;20039;-80
2022/07/11 04:18:17;;;;;;;5.50;1.15;;;13.70;99.90;;;;;;5074677;28;20458;-79
2022/07/11 04:20:42;;;;;;;2.35;0.85;;;13.70;99.90;;;;;;5075001;28;20386;-80
2022/07/11 04:23:08;;;;;;;1.38;1.00;;;13.70;99.90;;;;;;5061276;28;20031;-84
2022/07/11 04:25:34;;;;;;;4.63;1.10;;;13.80;99.90;;;;;;5080729;28;20166;-80
2022/07/11 04:28:00;;;;;;;4.63;1.15;;;13.80;99.90;;;;;;5073243;28;20036;-79
2022/07/11 04:30:25;;;;;;;3.65;1.10;;;13.80;99.90;;;;;;5075074;28;20029;-84
2022/07/11 04:32:51;;;;;;;3.88;1.02;;;13.80;99.90;;;;;;5076889;28;20383;-79
2022/07/11 04:35:17;;;;;;;3.20;1.67;;;13.80;99.90;;;;;;5049157;28;20390;-82
2022/07/11 04:37:43;;;;;;;2.60;1.13;;;13.80;99.90;;;;;;5069370;28;20039;-79
2022/07/11 04:40:09;;;;;;;2.97;1.52;;;13.90;99.90;;;;;;5059348;28;20119;-79
2022/07/11 04:42:35;;;;;;;3.78;0.98;;;13.90;99.90;;;;;;5059450;28;20115;-80
2022/07/11 04:45:00;;;;;;;4.32;1.20;;;14.00;99.90;;;;;;5067154;28;20111;-80
2022/07/11 04:47:26;;;;;;;3.22;1.00;;;14.00;99.90;;;;;;5052368;28;20021;-79
2022/07/11 04:49:52;;;;;;;3.22;1.00;;;14.10;99.90;;;;;;5076635;28;20028;-78
2022/07/11 04:52:17;;;;;;;2.95;0.95;;;14.10;99.90;;;;;;5051428;28;20128;-79
2022/07/11 04:54:43;;;;;;;2.53;0.90;;;14.10;99.90;;;;;;5073876;28;20498;-78
2022/07/11 04:57:09;;;;;;;3.30;1.13;;;14.10;99.90;;;;;;5054351;28;20036;-81
2022/07/11 04:59:34;;;;;;;3.75;1.02;;;14.20;99.90;;;;;;5057166;28;20081;-79
2022/07/11 05:02:00;;;;;;;5.93;0.93;;;14.30;99.90;;;;;;5091280;28;20482;-76
2022/07/11 05:04:25;;;;;;;2.33;1.00;;;14.30;99.90;;;;;;5066987;28;20056;-82
2022/07/11 05:06:51;;;;;;;1.48;0.68;;;14.40;99.90;;;;;;5068550;28;20059;-81
2022/07/11 05:09:16;;;;;;;3.05;0.93;;;14.50;99.90;;;;;;5058995;28;20025;-83
2022/07/11 05:11:42;;;;;;;3.15;1.15;;;14.50;99.90;;;;;;5057155;28;20386;-81
2022/07/11 05:14:07;;;;;;;2.35;0.88;;;14.60;99.90;;;;;;5077311;28;20036;-78
2022/07/11 05:16:33;;;;;;;5.22;1.00;;;14.60;99.90;;;;;;5055585;28;20444;-80
2022/07/11 05:18:58;;;;;;;9.10;0.75;;;14.60;99.90;;;;;;5064434;28;20111;-79
2022/07/11 05:21:24;;;;;;;3.95;1.20;;;14.70;99.90;;;;;;5080435;28;20066;-79
2022/07/11 05:23:50;;;;;;;1.95;0.93;;;14.70;99.90;;;;;;5085988;28;20145;-79
2022/07/11 05:26:15;;;;;;;2.80;0.70;;;14.80;99.90;;;;;;5070419;28;20456;-76
2022/07/11 05:28:42;;;;;;;1.15;0.65;;;14.80;99.90;;;;;;5075965;28;20035;-83
2022/07/11 05:31:08;;;;;;;2.85;0.80;;;14.90;99.90;;;;;;5077595;28;20082;-80
2022/07/11 05:33:34;;;;;;;3.03;0.98;;;14.90;99.90;;;;;;5074128;28;20424;-83
2022/07/11 05:36:03;;;;;;;3.80;1.25;;;14.90;99.90;;;;;;5073374;28;20050;-79
2022/07/11 05:38:29;;;;;;;5.00;0.80;;;15.00;99.90;;;;;;5079976;28;20374;-80
2022/07/11 05:40:54;;;;;;;2.38;1.00;;;15.00;99.90;;;;;;5085171;28;20083;-80
2022/07/11 05:43:20;;;;;;;2.65;0.70;;;15.10;99.90;;;;;;5070420;28;20052;-79
2022/07/11 05:45:45;;;;;;;7.32;1.52;;;15.20;99.90;;;;;;5069839;28;20445;-80
2022/07/11 05:48:11;;;;;;;2.70;0.80;;;15.20;99.90;;;;;;5073257;28;20050;-80
2022/07/11 05:50:37;;;;;;;2.17;0.70;;;15.30;99.80;;;;;;5053631;28;20489;-81
2022/07/11 05:53:02;;;;;;;1.63;0.60;;;15.30;99.70;;;;;;5069477;28;20104;-80
2022/07/11 05:55:29;;;;;;;5.18;0.90;;;15.30;99.60;;;;;;5069897;28;20040;-82
2022/07/11 05:57:54;;;;;;;3.58;0.80;;;15.30;99.60;;;;;;5069880;28;20029;-80
2022/07/11 06:00:22;;;;;;;3.42;0.60;;;15.30;99.50;;;;;;5053478;28;20753;-82
2022/07/11 06:02:48;;;;;;;2.97;0.60;;;15.20;99.40;;;;;;5068215;28;20545;-80
2022/07/11 06:05:14;;;;;;;1.88;0.52;;;15.30;99.30;;;;;;5071835;28;20437;-78
2022/07/11 06:10:25;;;;;;;1.67;0.52;;;15.50;99.00;;;;;;5070467;28;20070;-81
2022/07/11 06:12:50;;;;;;;1.83;0.60;;;15.50;98.30;;;;;;5077095;28;20029;-77
2022/07/11 06:15:16;;;;;;;2.88;0.93;;;15.60;98.20;;;;;;5060954;28;20111;-79
2022/07/11 06:17:45;;;;;;;4.43;0.75;;;15.70;98.10;;;;;;5072758;28;20031;-79
2022/07/11 06:20:10;;;;;;;1.55;0.50;;;15.70;97.80;;;;;;5055038;28;20435;-81
2022/07/11 06:22:36;;;;;;;2.90;0.73;;;15.70;97.80;;;;;;5076861;28;20044;-83
2022/07/11 06:25:01;;;;;;;3.13;1.25;;;15.80;98.00;;;;;;5063310;28;20056;-79
2022/07/11 06:27:27;;;;;;;5.70;0.70;;;15.90;97.50;;;;;;5100348;28;20074;-79
2022/07/11 06:29:52;;;;;;;2.92;0.55;;;16.00;97.10;;;;;;5077299;28;20032;-78
2022/07/11 06:32:18;;;;;;;1.48;0.52;;;16.00;96.40;;;;;;5073825;28;20033;-82
2022/07/11 06:34:44;;;;;;;2.83;0.60;;;16.20;96.30;;;;;;5086296;28;20043;-79
2022/07/11 06:37:09;;;;;;;3.28;0.52;;;16.30;96.50;;;;;;5072566;28;20054;-79
2022/07/11 06:39:34;;;;;;;2.53;0.45;;;16.50;95.40;;;;;;5076134;28;20059;-78
2022/07/11 06:42:00;;;;;;;4.25;0.50;;;16.50;95.20;;;;;;5067930;28;20521;-79
2022/07/11 06:44:25;;;;;;;2.08;0.50;;;16.60;95.00;;;;;;5051021;28;20201;-78
2022/07/11 06:46:52;;;;;;;1.15;0.50;;;16.70;94.90;;;;;;5053055;28;20028;-79
2022/07/11 06:49:17;;;;;;;0.98;0.30;;;16.80;94.60;;;;;;5056516;28;20025;-78
2022/07/11 06:51:43;;;;;;;1.75;0.50;;;16.80;95.00;;;;;;5071576;28;20558;-81
2022/07/11 06:54:08;;;;;;;1.42;0.50;;;16.80;94.60;;;;;;5053025;28;20111;-80
2022/07/11 06:56:33;;;;;;;2.65;0.57;;;16.90;94.40;;;;;;5070437;28;20085;-78
2022/07/11 06:58:59;;;;;;;1.50;0.30;;;16.90;94.20;;;;;;5105387;28;20466;-79
2022/07/11 07:01:24;;;;;;;0.82;0.40;;;16.90;94.20;;;;;;5090902;28;20025;-79
2022/07/11 07:03:51;;;;;;;0.82;0.30;;;16.90;93.90;;;;;;5051188;28;20044;-79
2022/07/11 07:06:16;;;;;;;1.17;0.40;;;16.90;93.90;;;;;;5066249;28;20033;-78
2022/07/11 07:08:42;;;;;;;1.25;0.47;;;17.00;94.10;;;;;;5043770;28;20044;-82
2022/07/11 07:11:07;;;;;;;0.75;0.30;;;17.10;93.90;;;;;;5049557;28;20025;-80
2022/07/11 07:13:33;;;;;;;1.88;0.43;;;17.10;93.80;;;;;;5040717;28;20035;-80
2022/07/11 07:15:58;;;;;;;0.73;0.30;;;17.20;93.10;;;;;;5070325;28;20493;-77
2022/07/11 07:18:25;;;;;;;1.38;0.40;;;17.30;93.20;;;;;;5069187;28;20497;-79
2022/07/11 07:20:51;;;;;;;1.42;0.50;;;17.40;92.80;;;;;;5056020;28;20056;-79
2022/07/11 07:23:17;;;;;;;2.42;0.45;;;17.40;92.30;;;;;;5051930;28;20029;-79
2022/07/11 07:25:43;;;;;;;3.90;0.30;;;17.30;93.10;;;;;;5074866;28;20039;-79
2022/07/11 07:28:08;;;;;;;0.65;0.30;;;17.30;93.00;;;;;;5088080;28;20471;-81
2022/07/11 07:30:34;;;;;;;1.48;0.40;;;17.50;92.40;;;;;;5068444;28;20064;-80
2022/07/11 07:33:02;;;;;;;0.82;0.57;;;17.80;91.10;;;;;;5059630;28;20112;-77
2022/07/11 07:35:29;;;;;;;1.10;0.50;;;17.80;91.00;;;;;;5069672;28;20472;-77
2022/07/11 07:37:55;;;;;;;2.13;0.30;;;18.00;90.90;;;;;;5071354;28;20052;-78
2022/07/11 07:40:21;;;;;;;4.30;0.50;;;18.00;90.70;;;;;;5074749;28;20040;-80
2022/07/11 07:42:47;;;;;;;2.00;0.40;;;18.00;91.20;;;;;;5066480;28;20161;-78
2022/07/11 07:45:12;;;;;;;1.10;0.40;;;18.10;91.60;;;;;;5051380;28;20120;-75
2022/07/11 07:47:38;;;;;;;1.33;0.50;;;18.30;91.50;;;;;;5050960;28;20089;-77
2022/07/11 07:50:05;;;;;;;1.52;0.30;;;18.60;91.30;;;;;;5069627;28;20032;-77
2022/07/11 07:52:30;;;;;;;1.23;0.25;;;18.80;90.20;;;;;;5070582;28;20035;-82
2022/07/11 07:54:56;;;;;;;0.50;0.30;;;18.90;90.40;;;;;;5070707;28;20032;-78
2022/07/11 07:57:21;;;;;;;1.52;0.43;;;19.00;89.60;;;;;;5073671;28;20545;-79
2022/07/11 07:59:47;;;;;;;1.10;0.30;;;19.00;88.90;;;;;;5075000;28;20027;-78
2022/07/11 08:02:12;;;;;;;1.95;0.45;;;18.80;89.40;;;;;;5060579;28;20031;-77
2022/07/11 08:04:38;;;;;;;0.95;0.30;;;18.70;90.40;;;;;;5083805;28;20045;-79
2022/07/11 08:07:03;;;;;;;2.20;0.40;;;18.70;90.50;;;;;;5099698;28;20029;-78
2022/07/11 08:09:29;;;;;;;1.17;0.30;;;18.70;90.10;;;;;;5055935;28;20052;-78
2022/07/11 08:11:54;;;;;;;1.77;0.30;;;18.80;90.50;;;;;;5059337;28;20112;-77
2022/07/11 08:14:21;;;;;;;0.20;0.20;;;18.70;90.10;;;;;;5083005;28;20474;-78
2022/07/11 08:16:47;;;;;;;0.57;0.30;;;18.70;90.20;;;;;;5081486;28;20024;-78
2022/07/11 08:19:13;;;;;;;0.82;0.40;;;18.80;90.00;;;;;;5086167;28;20131;-79
2022/07/11 08:21:38;;;;;;;4.25;0.52;;;19.00;88.80;;;;;;5069811;28;20123;-75
2022/07/11 08:24:04;;;;;;;1.83;0.55;;;19.20;89.90;;;;;;5070749;28;20789;-74
2022/07/11 08:26:30;;;;;;;3.63;0.40;;;19.50;88.30;;;;;;5082371;28;20029;-77
2022/07/11 08:28:56;;;;;;;1.33;0.50;;;19.70;85.40;;;;;;5071578;28;20090;-75
2022/07/11 08:31:22;;;;;;;1.33;0.30;;;19.60;84.30;;;;;;5053346;28;20052;-77
2022/07/11 08:33:48;;;;;;;2.58;0.45;;;19.60;83.50;;;;;;5070376;28;20067;-79
2022/07/11 08:36:13;;;;;;;0.70;0.30;;;19.60;85.00;;;;;;5054042;28;20029;-77
2022/07/11 08:38:43;;;;;;;0.65;0.40;;;19.70;85.00;;;;;;5070925;28;20115;-80
2022/07/11 08:41:10;;;;;;;0.47;0.20;;;20.00;85.60;;;;;;5081543;28;20032;-77
2022/07/11 08:43:36;;;;;;;1.10;0.40;;;20.20;82.30;;;;;;5074818;28;20036;-80
2022/07/11 08:46:02;;;;;;;2.13;0.40;;;20.40;81.70;;;;;;5050942;28;20027;-76
2022/07/11 08:48:29;;;;;;;1.52;0.40;;;20.40;81.80;;;;;;5069346;28;20435;-77
2022/07/11 08:50:55;;;;;;;0.50;0.35;;;20.30;82.10;;;;;;5070693;28;20032;-79
2022/07/11 08:53:20;;;;;;;1.58;0.35;;;20.00;81.90;;;;;;5070429;28;20040;-79
2022/07/11 08:55:47;;;;;;;0.85;0.40;;;19.70;82.10;;;;;;5069357;28;20041;-81
2022/07/11 08:58:14;;;;;;;0.85;0.40;;;19.50;79.70;;;;;;5069987;28;20032;-77
2022/07/11 09:00:42;;;;;;;1.05;0.50;;;19.50;82.20;;;;;;5069730;28;20035;-76
2022/07/11 09:03:13;;;;;;;0.75;0.43;;;19.60;80.40;;;;;;5069502;28;20029;-77
2022/07/11 09:05:39;;;;;;;1.58;0.32;;;19.90;79.80;;;;;;5067697;28;20033;-79
2022/07/11 09:08:04;;;;;;;1.40;0.43;;;20.20;82.60;;;;;;5051540;28;20044;-77
2022/07/11 09:10:30;;;;;;;1.27;0.47;;;20.40;81.50;;;;;;5066375;28;20036;-78
2022/07/11 09:13:03;;;;;;;0.88;0.30;;;20.50;79.60;;;;;;5050876;28;20083;-76
2022/07/11 09:15:35;;;;;;;2.85;0.40;;;20.40;80.70;;;;;;5050830;28;20626;-77
2022/07/11 09:18:02;;;;;;;0.70;0.30;;;20.40;78.70;;;;;;5051503;28;20036;-76
2022/07/11 09:25:19;;;;;;;1.75;0.60;;;20.40;80.40;;;;;;5069374;28;20470;-76
2022/07/11 09:26:05;;;;;;;1.73;0.40;;;21.10;79.50;;;;;;5057692;28;20044;-80
2022/07/11 09:28:30;;;;;;;4.55;0.50;;;21.50;77.30;;;;;;5076634;28;20024;-76
2022/07/11 09:30:56;;;;;;;1.55;0.65;;;21.70;76.60;;;;;;5044257;28;20028;-77
2022/07/11 09:33:22;;;;;;;0.90;0.30;;;21.70;76.00;;;;;;5078259;28;20108;-77
2022/07/11 09:35:47;;;;;;;0.73;0.50;;;21.60;75.50;;;;;;5059131;28;20511;-77
2022/07/11 09:38:16;;;;;;;1.20;0.40;;;21.50;75.40;;;;;;5071154;28;20032;-78
2022/07/11 09:40:46;;;;;;;0.45;0.30;;;21.30;76.10;;;;;;5062267;28;20477;-77
2022/07/11 09:43:12;;;;;;;1.75;0.32;;;21.30;78.10;;;;;;5046892;28;20123;-75
2022/07/11 09:45:39;;;;;;;1.52;0.40;;;21.40;77.40;;;;;;5067510;28;20035;-75
2022/07/11 09:48:12;;;;;;;0.77;0.30;;;21.50;76.40;;;;;;5060853;28;20064;-78
2022/07/11 09:50:39;;;;;;;1.50;0.35;;;21.40;75.60;;;;;;5055787;28;20025;-80
2022/07/11 09:53:09;;;;;;;0.30;0.30;;;21.40;77.50;;;;;;5056487;28;20048;-81
2022/07/11 09:55:44;;;;;;;0.57;0.32;;;21.40;75.90;;;;;;5049963;28;20634;-80
2022/07/11 09:58:11;;;;;;;0.57;0.30;;;21.50;75.80;;;;;;5054547;28;20035;-78
2022/07/11 10:00:38;;;;;;;3.53;0.68;;;21.70;76.20;;;;;;5067844;28;20497;-80
2022/07/11 10:03:05;;;;;;;4.60;0.40;;;21.90;75.40;;;;;;5056834;28;20391;-78
2022/07/11 10:05:31;;;;;;;2.10;0.60;;;22.10;72.20;;;;;;5060389;28;20676;-78
2022/07/11 10:07:57;;;;;;;0.85;0.40;;;22.10;72.00;;;;;;5070326;28;20036;-78
2022/07/11 10:10:25;;;;;;;2.08;0.35;;;22.20;73.10;;;;;;5068909;28;20021;-78
2022/07/11 10:12:51;;;;;;;1.50;0.25;;;22.40;72.50;;;;;;5068060;28;20079;-81
2022/07/11 10:15:23;;;;;;;2.50;0.30;;;22.60;73.30;;;;;;5086633;28;20050;-80
2022/07/11 10:18:15;;;;;;;2.20;0.43;;;22.70;69.50;;;;;;5064525;28;20402;-79
2022/07/11 10:21:05;;;;;;;2.43;0.73;;;22.90;71.30;;;;;;5051166;28;20709;-76
2022/07/11 10:23:36;;;;;;;1.45;0.30;;;23.20;72.00;;;;;;5058351;28;20033;-81
2022/07/11 10:26:34;;;;;;;0.68;0.32;;;23.60;69.80;;;;;;5067683;28;20394;-79
2022/07/11 10:29:15;;;;;;;3.17;0.40;;;23.80;66.10;;;;;;5057503;28;20111;-77
2022/07/11 10:31:41;;;;;;;0.63;0.22;;;23.80;66.60;;;;;;5075762;28;20111;-78
2022/07/11 10:34:18;;;;;;;2.35;0.30;;;23.50;67.40;;;;;;5053995;28;20119;-80
2022/07/11 10:36:44;;;;;;;0.30;0.30;;;23.20;69.20;;;;;;5033130;28;20060;-77
2022/07/11 10:39:18;;;;;;;0.40;0.30;;;22.90;69.00;;;;;;5066490;28;20040;-80
2022/07/11 10:41:44;;;;;;;1.15;0.30;;;22.70;68.20;;;;;;5047701;28;20123;-78
2022/07/11 10:44:10;;;;;;;1.70;0.52;;;22.80;69.90;;;;;;5066293;28;20037;-80
2022/07/11 10:46:36;;;;;;;0.30;0.30;;;22.90;68.50;;;;;;5048702;28;20521;-77
2022/07/11 10:49:24;;;;;;;3.38;0.60;;;23.10;70.50;;;;;;5049631;28;20041;-79
2022/07/11 10:51:59;;;;;;;1.00;0.40;;;23.30;67.90;;;;;;5065156;28;20436;-81
2022/07/11 10:54:48;;;;;;;5.05;0.70;;;23.30;67.30;;;;;;5066109;28;20055;-79
2022/07/11 10:57:21;;;;;;;1.35;0.30;;;23.40;68.40;;;;;;5047840;28;20360;-79
2022/07/11 10:59:57;;;;;;;1.48;0.35;;;23.50;65.90;;;;;;5053848;28;20128;-79
2022/07/11 11:02:22;;;;;;;0.50;0.40;;;23.40;65.40;;;;;;5068228;28;20035;-78
2022/07/11 11:04:58;;;;;;;0.45;0.30;;;23.40;70.70;;;;;;5066775;28;20405;-79
2022/07/11 11:07:38;;;;;;;0.65;0.30;;;23.60;67.40;;;;;;5057703;28;20021;-80
2022/07/11 11:10:25;;;;;;;0.60;0.30;;;23.90;66.60;;;;;;5063318;28;20024;-80
2022/07/11 11:13:06;;;;;;;1.08;0.43;;;24.30;66.80;;;;;;5047661;28;20056;-79
2022/07/11 11:15:42;;;;;;;2.17;0.40;;;24.30;62.30;;;;;;5053579;28;20025;-80
2022/07/11 11:18:25;;;;;;;0.90;0.40;;;24.20;63.80;;;;;;5080839;28;20024;-80
2022/07/11 11:21:02;;;;;;;0.30;0.30;;;24.00;65.10;;;;;;5075649;28;20028;-80
2022/07/11 11:23:45;;;;;;;1.08;0.32;;;24.00;64.20;;;;;;5087639;28;20020;-78
2022/07/11 11:26:19;;;;;;;1.98;0.32;;;23.90;65.70;;;;;;5052032;28;20114;-79
2022/07/11 11:28:58;;;;;;;1.40;0.50;;;24.00;63.30;;;;;;5065105;28;20041;-80
2022/07/11 11:31:24;;;;;;;1.45;0.40;;;24.00;63.20;;;;;;5052674;28;20770;-80
2022/07/11 11:33:50;;;;;;;0.63;0.30;;;23.90;64.70;;;;;;5062899;28;20031;-80
2022/07/11 11:36:17;;;;;;;1.60;0.30;;;24.00;67.90;;;;;;5067475;28;20024;-79
2022/07/11 11:38:44;;;;;;;1.95;0.30;;;24.20;63.90;;;;;;5074961;28;20041;-78
2022/07/11 11:41:12;;;;;;;1.80;0.40;;;24.30;63.10;;;;;;5071333;28;20123;-78
2022/07/11 11:43:42;;;;;;;0.32;0.30;;;24.30;64.20;;;;;;5071686;28;20462;-81
2022/07/11 11:46:08;;;;;;;0.43;0.20;;;24.30;63.70;;;;;;5070742;28;20545;-76
2022/07/11 11:48:35;;;;;;;0.50;0.28;;;24.60;65.20;;;;;;5072041;28;20116;-78
2022/07/11 11:51:10;;;;;;;1.25;0.30;;;24.80;64.40;;;;;;5070157;28;20032;-78
2022/07/11 11:53:46;;;;;;;1.00;0.30;;;25.10;62.50;;;;;;5071313;28;20036;-78
2022/07/11 11:56:34;;;;;;;0.55;0.30;;;25.40;62.10;;;;;;5065689;28;20032;-77
2022/07/11 11:59:07;;;;;;;2.38;0.40;;;25.30;61.40;;;;;;5033682;28;20029;-78
2022/07/11 12:01:38;;;;;;;2.20;0.30;;;25.50;60.20;;;;;;5051051;28;20166;-76
2022/07/11 12:04:10;;;;;;;2.88;0.40;;;25.60;61.00;;;;;;5078390;28;20036;-80
2022/07/11 12:06:38;;;;;;;1.40;0.30;;;25.70;59.50;;;;;;5055092;28;20037;-77
2022/07/11 12:09:11;;;;;;;1.10;0.40;;;25.80;58.50;;;;;;5068576;28;20138;-79
2022/07/11 12:11:43;;;;;;;0.30;0.20;;;25.80;58.00;;;;;;5057448;28;20485;-79
2022/07/11 12:14:10;;;;;;;1.23;0.37;;;25.70;57.70;;;;;;5069130;28;20085;-78
2022/07/11 12:16:41;;;;;;;1.13;0.38;;;25.70;57.90;;;;;;5070253;28;20509;-78
2022/07/11 12:19:19;;;;;;;4.85;1.17;;;25.40;57.40;;;;;;5091298;28;20498;-77
2022/07/11 12:21:47;;;;;;;0.63;0.30;;;25.00;59.00;;;;;;5075231;28;20092;-79
2022/07/11 12:24:23;;;;;;;0.90;0.30;;;24.80;59.60;;;;;;5072679;28;20040;-79
2022/07/11 12:26:50;;;;;;;3.95;0.30;;;24.90;59.50;;;;;;5068668;28;20136;-78
2022/07/11 12:29:20;;;;;;;1.65;0.30;;;25.10;59.80;;;;;;5079042;28;20028;-79
2022/07/11 12:31:50;;;;;;;0.52;0.30;;;25.20;58.20;;;;;;5069747;28;20028;-80
2022/07/11 12:34:20;;;;;;;0.85;0.30;;;25.40;59.70;;;;;;5077911;28;20036;-80
2022/07/11 12:36:47;;;;;;;0.50;0.20;;;25.70;58.40;;;;;;5077185;28;20124;-81
2022/07/11 12:39:26;;;;;;;0.90;0.30;;;25.90;57.30;;;;;;5075343;28;20470;-81
2022/07/11 12:41:52;;;;;;;1.75;0.30;;;25.70;56.50;;;;;;5064655;28;20115;-81
2022/07/11 12:47:07;;;;;;;1.27;0.40;;;25.20;58.10;;;;;;5070144;28;20089;-78
2022/07/11 12:49:33;;;;;;;2.67;0.30;;;25.00;58.20;;;;;;5085503;28;20024;-80
2022/07/11 12:52:00;;;;;;;0.70;0.30;;;24.90;56.30;;;;;;5067959;28;20135;-78
2022/07/11 12:54:30;;;;;;;0.45;0.40;;;24.70;59.00;;;;;;5062051;28;20224;-80
2022/07/11 12:56:57;;;;;;;1.40;0.30;;;24.60;60.00;;;;;;5043785;28;20534;-80
2022/07/11 12:59:24;;;;;;;1.38;0.30;;;24.70;58.80;;;;;;5086523;28;20128;-80